createdAt,value
2018-12-21T00:01:30.012Z,7.73
2018-12-21T00:03:58.986Z,7.43
2018-12-21T00:06:28.103Z,8.77
2018-12-21T00:08:57.134Z,6.67
2018-12-21T00:11:26.269Z,6.80
2018-12-21T00:13:55.441Z,6.97
2018-12-21T00:16:24.460Z,7.20
2018-12-21T00:18:55.003Z,7.17
2018-12-21T00:21:24.062Z,7.00
2018-12-21T00:23:53.151Z,7.77
2018-12-21T00:26:22.221Z,6.83
2018-12-21T00:28:51.285Z,8.17
2018-12-21T00:31:25.679Z,7.43
2018-12-21T00:34:00.024Z,7.87
2018-12-21T00:36:34.483Z,6.97
2018-12-21T00:39:09.794Z,7.77
2018-12-21T00:41:38.091Z,8.17
2018-12-21T00:44:26.377Z,7.97
2018-12-21T00:46:58.475Z,8.03
2018-12-21T00:49:29.095Z,7.13
2018-12-21T00:51:58.370Z,8.50
2018-12-21T00:54:27.358Z,8.87
2018-12-21T00:56:56.339Z,8.17
2018-12-21T00:59:25.531Z,7.80
2018-12-21T01:01:55.912Z,7.90
2018-12-21T01:04:25.121Z,7.67
2018-12-21T01:06:54.175Z,7.93
2018-12-21T01:09:23.393Z,8.27
2018-12-21T01:11:52.468Z,8.27
2018-12-21T01:14:21.465Z,7.67
2018-12-21T01:16:50.529Z,8.33
2018-12-21T01:19:19.637Z,8.27
2018-12-21T01:21:48.642Z,7.80
2018-12-21T01:24:17.839Z,7.77
2018-12-21T01:26:46.919Z,8.90
2018-12-21T01:29:16.213Z,8.33
2018-12-21T01:31:45.343Z,8.23
2018-12-21T01:34:14.358Z,8.10
2018-12-21T01:36:43.571Z,8.33
2018-12-21T01:39:13.177Z,8.30
2018-12-21T01:41:42.287Z,7.87
2018-12-21T01:44:12.426Z,8.20
2018-12-21T01:46:41.708Z,8.17
2018-12-21T01:49:10.729Z,7.87
2018-12-21T01:51:46.918Z,8.00
2018-12-21T01:54:11.784Z,8.00
2018-12-21T01:56:40.887Z,7.13
2018-12-21T01:59:09.941Z,8.83
2018-12-21T02:01:40.121Z,8.07
2018-12-21T02:04:09.342Z,8.63
2018-12-21T02:06:38.359Z,8.60
2018-12-21T02:09:07.967Z,8.07
2018-12-21T02:11:37.270Z,8.53
2018-12-21T02:14:06.334Z,9.07
2018-12-21T02:16:35.841Z,8.23
2018-12-21T02:19:05.023Z,8.37
2018-12-21T02:21:34.168Z,8.63
2018-12-21T02:24:03.262Z,8.07
2018-12-21T02:26:32.323Z,8.50
2018-12-21T02:29:01.323Z,7.97
2018-12-21T02:31:32.019Z,8.37
2018-12-21T02:34:01.101Z,8.40
2018-12-21T02:36:30.269Z,8.13
2018-12-21T02:38:59.296Z,8.43
2018-12-21T02:41:28.411Z,8.07
2018-12-21T02:43:57.595Z,7.80
2018-12-21T02:46:26.564Z,7.37
2018-12-21T02:48:55.680Z,8.30
2018-12-21T02:51:24.819Z,8.47
2018-12-21T02:53:53.798Z,7.73
2018-12-21T02:56:22.881Z,8.00
2018-12-21T02:58:51.895Z,8.23
2018-12-21T03:01:21.010Z,7.67
2018-12-21T03:03:50.196Z,7.10
2018-12-21T03:06:19.334Z,7.53
2018-12-21T03:08:48.438Z,7.07
2018-12-21T03:11:17.478Z,7.87
2018-12-21T03:13:46.570Z,7.30
2018-12-21T03:16:15.671Z,8.57
2018-12-21T03:18:44.825Z,7.63
2018-12-21T03:21:14.142Z,7.03
2018-12-21T03:23:43.243Z,7.37
2018-12-21T03:26:13.382Z,7.87
2018-12-21T03:28:42.497Z,7.67
2018-12-21T03:31:11.518Z,7.03
2018-12-21T03:33:40.481Z,6.40
2018-12-21T03:36:09.573Z,7.83
2018-12-21T03:38:38.706Z,6.90
2018-12-21T03:41:07.852Z,7.73
2018-12-21T03:43:36.915Z,6.60
2018-12-21T03:46:06.180Z,6.57
2018-12-21T03:48:37.245Z,6.67
2018-12-21T03:51:06.302Z,6.30
2018-12-21T03:53:35.369Z,6.97
2018-12-21T03:56:04.528Z,6.67
2018-12-21T03:58:33.701Z,6.23
2018-12-21T04:01:02.671Z,6.53
2018-12-21T04:03:34.546Z,6.67
2018-12-21T04:06:03.710Z,6.87
2018-12-21T04:08:33.754Z,6.77
2018-12-21T04:11:03.122Z,6.23
2018-12-21T04:13:32.292Z,6.90
2018-12-21T04:16:01.283Z,6.37
2018-12-21T04:18:30.343Z,5.77
2018-12-21T04:20:59.316Z,6.10
2018-12-21T04:23:28.375Z,5.30
2018-12-21T04:25:57.372Z,6.33
2018-12-21T04:28:26.472Z,5.67
2018-12-21T04:30:55.556Z,6.10
2018-12-21T04:33:24.552Z,5.73
2018-12-21T04:35:53.586Z,6.00
2018-12-21T04:38:22.642Z,6.17
2018-12-21T04:40:51.637Z,5.17
2018-12-21T04:43:20.666Z,5.20
2018-12-21T04:45:49.755Z,5.83
2018-12-21T04:48:18.805Z,5.47
2018-12-21T04:50:47.804Z,5.20
2018-12-21T04:53:16.854Z,4.87
2018-12-21T04:55:46.023Z,5.57
2018-12-21T04:58:15.235Z,5.57
2018-12-21T05:00:44.281Z,5.17
2018-12-21T05:03:14.698Z,4.80
2018-12-21T05:05:43.927Z,5.33
2018-12-21T05:08:13.427Z,4.83
2018-12-21T05:10:42.509Z,4.87
2018-12-21T05:13:11.472Z,5.23
2018-12-21T05:15:40.489Z,4.77
2018-12-21T05:18:09.479Z,4.77
2018-12-21T05:20:38.548Z,4.73
2018-12-21T05:23:07.545Z,4.80
2018-12-21T05:25:36.585Z,4.80
2018-12-21T05:28:05.578Z,4.43
2018-12-21T05:30:34.658Z,4.13
2018-12-21T05:33:03.820Z,4.20
2018-12-21T05:35:32.827Z,4.90
2018-12-21T05:38:01.905Z,4.30
2018-12-21T05:40:30.973Z,3.97
2018-12-21T05:42:59.952Z,4.10
2018-12-21T05:45:28.934Z,4.57
2018-12-21T05:47:58.014Z,4.30
2018-12-21T05:50:27.196Z,3.63
2018-12-21T05:53:00.714Z,4.30
2018-12-21T05:55:27.347Z,4.17
2018-12-21T05:57:56.320Z,4.27
2018-12-21T06:00:25.467Z,4.10
2018-12-21T06:02:54.523Z,3.63
2018-12-21T06:05:23.498Z,4.40
2018-12-21T06:07:52.504Z,4.50
2018-12-21T06:10:21.670Z,3.30
2018-12-21T06:12:50.680Z,4.10
2018-12-21T06:15:19.691Z,4.07
2018-12-21T06:17:48.670Z,3.83
2018-12-21T06:20:17.877Z,3.70
2018-12-21T06:22:46.921Z,3.40
2018-12-21T06:25:15.994Z,3.37
2018-12-21T06:27:45.085Z,3.17
2018-12-21T06:30:14.113Z,3.17
2018-12-21T06:32:43.092Z,3.37
2018-12-21T06:35:12.181Z,3.13
2018-12-21T06:37:41.448Z,2.97
2018-12-21T06:40:10.445Z,3.27
2018-12-21T06:42:39.453Z,3.40
2018-12-21T06:45:08.564Z,3.57
2018-12-21T06:47:37.622Z,3.57
2018-12-21T06:50:07.337Z,3.67
2018-12-21T06:52:36.306Z,3.00
2018-12-21T06:55:05.884Z,2.90
2018-12-21T06:57:34.969Z,3.37
2018-12-21T07:00:04.324Z,3.30
2018-12-21T07:02:33.283Z,3.40
2018-12-21T07:05:02.463Z,3.53
2018-12-21T07:07:31.422Z,3.37
2018-12-21T07:10:00.397Z,4.73
2018-12-21T07:12:29.471Z,3.40
2018-12-21T07:14:58.452Z,3.90
2018-12-21T07:17:28.111Z,3.47
2018-12-21T07:19:57.988Z,3.10
2018-12-21T07:22:27.055Z,3.33
2018-12-21T07:24:56.126Z,3.33
2018-12-21T07:27:25.398Z,2.97
2018-12-21T07:29:54.391Z,2.90
2018-12-21T07:32:23.391Z,3.03
2018-12-21T07:34:52.371Z,2.73
2018-12-21T07:37:21.373Z,2.97
2018-12-21T07:39:50.377Z,3.17
2018-12-21T07:42:19.427Z,3.00
2018-12-21T07:44:48.418Z,3.07
2018-12-21T07:47:17.532Z,3.17
2018-12-21T07:49:46.528Z,3.40
2018-12-21T07:52:15.550Z,3.20
2018-12-21T07:54:44.584Z,2.77
2018-12-21T07:57:13.613Z,2.97
2018-12-21T07:59:42.609Z,3.00
2018-12-21T08:02:11.813Z,2.63
2018-12-21T08:04:40.800Z,2.87
2018-12-21T08:07:09.850Z,2.70
2018-12-21T08:09:38.969Z,2.33
2018-12-21T08:12:08.091Z,2.53
2018-12-21T08:14:37.091Z,2.20
2018-12-21T08:17:06.185Z,2.70
2018-12-21T08:19:35.257Z,2.80
2018-12-21T08:22:04.237Z,2.70
2018-12-21T08:24:33.260Z,2.63
2018-12-21T08:27:02.363Z,2.67
2018-12-21T08:29:31.522Z,2.43
2018-12-21T08:32:00.535Z,2.60
2018-12-21T08:34:29.581Z,2.60
2018-12-21T08:36:58.784Z,2.50
2018-12-21T08:39:27.873Z,2.30
2018-12-21T08:41:56.950Z,2.30
2018-12-21T08:44:25.967Z,2.47
2018-12-21T08:46:55.053Z,1.97
2018-12-21T08:49:24.209Z,2.40
2018-12-21T08:51:53.286Z,2.37
2018-12-21T08:54:22.376Z,2.10
2018-12-21T08:56:51.458Z,2.60
2018-12-21T08:59:21.009Z,2.00
2018-12-21T09:01:50.086Z,2.10
2018-12-21T09:04:19.197Z,2.80
2018-12-21T09:06:48.268Z,2.57
2018-12-21T09:09:17.372Z,2.00
2018-12-21T09:11:48.046Z,2.20
2018-12-21T09:14:17.206Z,2.70
2018-12-21T09:16:46.213Z,2.13
2018-12-21T09:19:15.282Z,1.90
2018-12-21T09:21:44.341Z,2.50
2018-12-21T09:24:13.410Z,2.27
2018-12-21T09:26:42.488Z,2.40
2018-12-21T09:29:11.554Z,2.17
2018-12-21T09:31:40.631Z,1.90
2018-12-21T09:34:09.654Z,1.80
2018-12-21T09:36:38.691Z,2.47
2018-12-21T09:39:08.265Z,2.10
2018-12-21T09:41:39.113Z,2.43
2018-12-21T09:44:08.153Z,2.10
2018-12-21T09:46:37.411Z,1.73
2018-12-21T09:49:06.434Z,1.93
2018-12-21T09:51:36.500Z,2.30
2018-12-21T09:54:09.835Z,2.10
2018-12-21T09:56:37.500Z,2.13
2018-12-21T09:59:08.029Z,1.77
2018-12-21T10:01:37.276Z,1.83
2018-12-21T10:04:07.517Z,2.30
2018-12-21T10:06:37.138Z,1.97
2018-12-21T10:09:07.760Z,1.90
2018-12-21T10:11:36.765Z,2.47
2018-12-21T10:14:05.841Z,2.07
2018-12-21T10:16:34.854Z,1.47
2018-12-21T10:19:04.088Z,2.17
2018-12-21T10:21:33.137Z,2.00
2018-12-21T10:24:02.204Z,2.20
2018-12-21T10:26:31.314Z,1.73
2018-12-21T10:29:00.294Z,1.90
2018-12-21T10:31:29.379Z,2.10
2018-12-21T10:33:58.390Z,1.80
2018-12-21T10:36:27.470Z,2.43
2018-12-21T10:38:56.549Z,1.87
2018-12-21T10:41:25.643Z,1.90
2018-12-21T10:43:55.615Z,1.73
2018-12-21T10:46:24.670Z,2.07
2018-12-21T10:48:53.736Z,1.90
2018-12-21T10:51:22.808Z,1.23
2018-12-21T10:56:32.074Z,1.70
2018-12-21T10:59:01.175Z,1.90
2018-12-21T11:01:30.419Z,2.17
2018-12-21T11:03:59.447Z,2.10
2018-12-21T11:06:28.921Z,1.67
2018-12-21T11:08:57.955Z,1.70
2018-12-21T11:11:27.010Z,1.50
2018-12-21T11:13:56.081Z,2.07
2018-12-21T11:16:25.078Z,1.77
2018-12-21T11:18:54.094Z,2.00
2018-12-21T11:21:23.104Z,1.97
2018-12-21T11:23:52.070Z,1.70
2018-12-21T11:26:21.199Z,1.40
2018-12-21T11:28:50.330Z,1.57
2018-12-21T11:31:19.515Z,1.90
2018-12-21T11:33:48.716Z,1.50
2018-12-21T11:36:19.847Z,1.60
2018-12-21T11:38:49.137Z,1.80
2018-12-21T11:41:18.697Z,1.60
2018-12-21T11:43:47.830Z,1.40
2018-12-21T11:46:17.025Z,1.40
2018-12-21T11:48:46.097Z,1.50
2018-12-21T11:51:15.235Z,1.60
2018-12-21T11:53:44.247Z,2.30
2018-12-21T11:56:13.342Z,1.50
2018-12-21T11:58:42.479Z,1.30
2018-12-21T12:01:11.472Z,1.13
2018-12-21T12:03:40.602Z,1.17
2018-12-21T12:06:09.913Z,1.50
2018-12-21T12:08:39.150Z,1.23
2018-12-21T12:11:08.274Z,1.40
2018-12-21T12:13:37.256Z,1.10
2018-12-21T12:16:06.254Z,1.23
2018-12-21T12:18:35.542Z,1.30
2018-12-21T12:21:04.708Z,1.47
2018-12-21T12:23:33.708Z,1.07
2018-12-21T12:26:02.800Z,1.40
2018-12-21T12:28:31.967Z,1.47
2018-12-21T12:31:01.035Z,1.43
2018-12-21T12:33:30.794Z,1.53
2018-12-21T12:35:59.849Z,1.40
2018-12-21T12:38:29.522Z,1.30
2018-12-21T12:41:06.387Z,1.27
2018-12-21T12:43:30.194Z,1.50
2018-12-21T12:45:59.266Z,1.93
2018-12-21T12:48:28.336Z,1.50
2018-12-21T12:50:57.405Z,1.33
2018-12-21T12:53:26.414Z,1.30
2018-12-21T12:55:55.474Z,1.40
2018-12-21T12:58:24.453Z,1.27
2018-12-21T13:00:53.616Z,1.50
2018-12-21T13:03:22.682Z,1.30
2018-12-21T13:05:51.726Z,1.07
2018-12-21T13:08:21.733Z,1.30
2018-12-21T13:10:51.706Z,1.60
2018-12-21T13:13:20.718Z,1.53
2018-12-21T13:15:49.707Z,1.27
2018-12-21T13:18:22.239Z,1.20
2018-12-21T13:20:51.299Z,1.00
2018-12-21T13:23:20.561Z,1.03
2018-12-21T13:25:49.907Z,1.23
2018-12-21T13:28:18.933Z,1.00
2018-12-21T13:30:47.998Z,1.30
2018-12-21T13:33:17.021Z,0.90
2018-12-21T13:35:46.079Z,1.00
2018-12-21T13:38:15.130Z,1.13
2018-12-21T13:40:44.107Z,0.90
2018-12-21T13:43:13.175Z,0.80
2018-12-21T13:45:42.768Z,0.60
2018-12-21T13:48:11.865Z,1.00
2018-12-21T13:50:41.233Z,0.90
2018-12-21T13:53:10.419Z,1.00
2018-12-21T13:55:39.505Z,1.10
2018-12-21T13:58:09.062Z,1.07
2018-12-21T14:00:38.370Z,0.93
2018-12-21T14:03:07.483Z,0.63
2018-12-21T14:05:36.672Z,0.70
2018-12-21T14:08:05.944Z,0.83
2018-12-21T14:10:35.190Z,0.83
2018-12-21T16:05:54.505Z,0.63
2018-12-21T16:13:20.867Z,1.37
2018-12-21T18:38:41.178Z,1.30
2018-12-21T18:43:58.694Z,1.50
2018-12-21T18:46:29.169Z,1.50
2018-12-21T18:50:26.596Z,1.50
2018-12-21T18:56:20.863Z,1.47
2018-12-21T18:59:49.266Z,1.97
2018-12-21T19:02:18.318Z,2.17
2018-12-21T19:04:46.312Z,1.80
2018-12-21T19:07:14.484Z,1.10
2018-12-21T19:09:42.479Z,1.47
2018-12-21T19:12:11.037Z,1.27
2018-12-21T19:14:39.216Z,1.20
2018-12-21T19:17:07.256Z,1.20
2018-12-21T19:19:35.291Z,1.30
2018-12-21T19:22:03.258Z,1.63
2018-12-21T19:24:31.315Z,1.80
2018-12-21T19:26:59.282Z,1.53
2018-12-21T19:29:27.892Z,1.97
2018-12-21T19:31:55.928Z,2.10
2018-12-21T19:34:24.632Z,1.70
2018-12-21T19:36:52.711Z,2.40
2018-12-21T19:39:20.833Z,2.20
2018-12-21T19:41:48.918Z,2.03
2018-12-21T19:44:17.325Z,1.80
2018-12-21T19:46:45.653Z,1.93
2018-12-21T19:49:13.752Z,1.80
2018-12-21T19:51:42.028Z,2.40
2018-12-21T19:54:11.559Z,1.63
2018-12-21T19:56:42.915Z,1.67
2018-12-21T19:59:11.070Z,1.77
2018-12-21T20:01:39.360Z,1.30
2018-12-21T20:04:07.519Z,1.80
2018-12-21T20:06:35.689Z,1.80
2018-12-21T20:09:05.543Z,2.20
2018-12-21T20:11:33.738Z,2.77
2018-12-21T20:14:01.795Z,2.80
2018-12-21T20:16:29.995Z,1.97
2018-12-21T20:18:58.667Z,1.70
2018-12-21T20:21:26.674Z,1.70
2018-12-21T20:23:54.755Z,1.77
2018-12-21T20:26:22.859Z,1.30
2018-12-21T20:28:50.971Z,1.23
2018-12-21T20:31:19.113Z,1.20
2018-12-21T20:33:47.183Z,1.30
2018-12-21T20:36:15.323Z,1.20
2018-12-21T20:38:43.334Z,0.93
2018-12-21T20:41:11.655Z,1.00
2018-12-21T20:43:39.693Z,1.33
2018-12-21T20:46:07.777Z,1.10
2018-12-21T20:48:35.788Z,1.10
2018-12-21T20:51:03.873Z,1.27
2018-12-21T20:53:31.942Z,1.30
2018-12-21T20:55:59.965Z,1.10
2018-12-21T20:58:33.169Z,1.03
2018-12-21T21:01:01.296Z,1.10
2018-12-21T21:03:29.336Z,1.00
2018-12-21T21:05:57.433Z,0.90
2018-12-21T21:08:26.242Z,0.70
2018-12-21T21:10:54.522Z,0.77
2018-12-21T21:13:22.574Z,1.00
2018-12-21T21:15:50.564Z,1.20
2018-12-21T21:18:18.661Z,1.30
2018-12-21T21:20:46.727Z,1.40
2018-12-21T21:23:14.880Z,1.20
2018-12-21T21:25:42.917Z,1.07
2018-12-21T21:28:10.957Z,1.40
2018-12-21T21:30:39.482Z,1.50
2018-12-21T21:33:08.651Z,1.73
2018-12-21T21:35:36.770Z,1.30
2018-12-21T21:38:05.111Z,1.83
2018-12-21T21:40:33.431Z,2.30
2018-12-21T21:43:01.523Z,2.63
2018-12-21T21:45:29.577Z,1.63
2018-12-21T21:47:57.562Z,1.70
2018-12-21T21:50:25.779Z,1.70
2018-12-21T21:52:53.802Z,1.47
2018-12-21T21:55:21.831Z,2.23
2018-12-21T21:57:49.827Z,2.00
2018-12-21T22:00:17.919Z,1.50
2018-12-21T22:02:45.960Z,1.63
2018-12-21T22:05:13.925Z,1.70
2018-12-21T22:07:41.941Z,1.43
2018-12-21T22:10:10.405Z,1.77
2018-12-21T22:12:38.391Z,1.27
2018-12-21T22:15:07.322Z,1.50
2018-12-21T22:17:35.409Z,1.80
2018-12-21T22:20:03.562Z,1.80
2018-12-21T22:22:31.549Z,1.93
2018-12-21T22:24:59.564Z,2.33
2018-12-21T22:27:27.533Z,2.10
2018-12-21T22:29:55.519Z,2.37
2018-12-21T22:32:23.531Z,2.23
2018-12-21T22:34:51.541Z,2.07
2018-12-21T22:37:19.546Z,1.90
2018-12-21T22:39:47.540Z,2.17
2018-12-21T22:42:15.506Z,2.20
2018-12-21T22:44:43.645Z,1.17
2018-12-21T22:47:11.684Z,2.20
2018-12-21T22:49:39.737Z,2.00
2018-12-21T22:52:07.791Z,1.67
2018-12-21T22:54:35.768Z,1.90
2018-12-21T22:57:03.843Z,1.80
2018-12-21T22:59:31.842Z,1.60
2018-12-21T23:01:59.817Z,1.00
2018-12-21T23:04:27.810Z,1.00
2018-12-21T23:06:55.765Z,1.07
2018-12-21T23:09:24.774Z,0.90
2018-12-21T23:11:52.722Z,1.33
2018-12-21T23:14:20.726Z,1.43
2018-12-21T23:16:48.830Z,1.27
2018-12-21T23:19:16.864Z,1.30
2018-12-21T23:21:44.933Z,1.00
2018-12-21T23:24:12.920Z,1.40
2018-12-21T23:26:40.955Z,1.10
2018-12-21T23:29:08.922Z,0.97
2018-12-21T23:31:36.972Z,1.07
2018-12-21T23:34:05.072Z,1.20
2018-12-21T23:36:33.116Z,1.20
2018-12-21T23:39:02.000Z,1.10
2018-12-21T23:41:29.965Z,0.93
2018-12-21T23:43:57.958Z,1.47
2018-12-21T23:46:26.190Z,0.80
2018-12-21T23:48:54.162Z,1.10
2018-12-21T23:51:22.144Z,0.57
2018-12-21T23:53:50.070Z,1.00
2018-12-21T23:56:18.044Z,1.10
2018-12-21T23:58:46.538Z,0.90
